sensor_id;sensor_type;location;lat;lon;timestamp;pressure;altitude;pressure_sealevel;temperature;humidity
12636;BME280;6383;50.830;7.210;2023-02-12T00:01:17;103021.59;;;7.68;89.39
12636;BME280;6383;50.830;7.210;2023-02-12T00:03:45;103018.91;;;7.68;90.58
12636;BME280;6383;50.830;7.210;2023-02-12T00:06:16;103017.84;;;7.69;90.52
12636;BME280;6383;50.830;7.210;2023-02-12T00:08:43;103014.91;;;7.71;89.75
12636;BME280;6383;50.830;7.210;2023-02-12T00:11:15;103021.16;;;7.71;90.16
12636;BME280;6383;50.830;7.210;2023-02-12T00:13:43;103023.06;;;7.71;89.59
12636;BME280;6383;50.830;7.210;2023-02-12T00:16:13;103032.00;;;7.71;89.88
12636;BME280;6383;50.830;7.210;2023-02-12T00:18:42;103025.75;;;7.71;89.93
12636;BME280;6383;50.830;7.210;2023-02-12T00:21:12;103028.47;;;7.71;90.25
12636;BME280;6383;50.830;7.210;2023-02-12T00:23:41;103026.59;;;7.71;89.85
12636;BME280;6383;50.830;7.210;2023-02-12T00:26:12;103018.47;;;7.71;89.56
12636;BME280;6383;50.830;7.210;2023-02-12T00:28:42;103033.88;;;7.71;89.97
12636;BME280;6383;50.830;7.210;2023-02-12T00:31:12;103026.81;;;7.70;89.55
12636;BME280;6383;50.830;7.210;2023-02-12T00:33:41;103023.06;;;7.71;89.51
12636;BME280;6383;50.830;7.210;2023-02-12T00:36:12;103019.25;;;7.72;89.54
12636;BME280;6383;50.830;7.210;2023-02-12T00:38:44;103024.69;;;7.72;90.03
12636;BME280;6383;50.830;7.210;2023-02-12T00:41:13;103024.69;;;7.72;89.84
12636;BME280;6383;50.830;7.210;2023-02-12T00:43:42;103020.09;;;7.72;90.19
12636;BME280;6383;50.830;7.210;2023-02-12T00:46:11;103020.34;;;7.71;90.53
12636;BME280;6383;50.830;7.210;2023-02-12T00:48:40;103021.38;;;7.70;90.63
12636;BME280;6383;50.830;7.210;2023-02-12T00:51:09;103026.81;;;7.70;90.68
12636;BME280;6383;50.830;7.210;2023-02-12T00:53:36;103020.56;;;7.69;89.73
12636;BME280;6383;50.830;7.210;2023-02-12T00:56:07;103029.53;;;7.70;89.83
12636;BME280;6383;50.830;7.210;2023-02-12T00:58:36;103023.28;;;7.69;89.87
12636;BME280;6383;50.830;7.210;2023-02-12T01:01:04;103020.56;;;7.69;89.82
12636;BME280;6383;50.830;7.210;2023-02-12T01:03:31;103032.22;;;7.70;90.35
12636;BME280;6383;50.830;7.210;2023-02-12T01:05:59;103029.53;;;7.70;89.56
12636;BME280;6383;50.830;7.210;2023-02-12T01:08:27;103026.19;;;7.68;90.41
12636;BME280;6383;50.830;7.210;2023-02-12T01:10:59;103027.84;;;7.69;89.76
12636;BME280;6383;50.830;7.210;2023-02-12T01:13:30;103037.66;;;7.70;90.21
12636;BME280;6383;50.830;7.210;2023-02-12T01:16:03;103030.56;;;7.69;89.69
12636;BME280;6383;50.830;7.210;2023-02-12T01:18:33;103027.03;;;7.68;90.63
12636;BME280;6383;50.830;7.210;2023-02-12T01:21:01;103027.03;;;7.68;89.30
12636;BME280;6383;50.830;7.210;2023-02-12T01:23:35;103031.63;;;7.68;89.53
12636;BME280;6383;50.830;7.210;2023-02-12T01:26:04;103029.94;;;7.67;89.60
12636;BME280;6383;50.830;7.210;2023-02-12T01:28:35;103034.31;;;7.68;89.30
12636;BME280;6383;50.830;7.210;2023-02-12T01:31:08;103028.28;;;7.66;90.26
12636;BME280;6383;50.830;7.210;2023-02-12T01:33:36;103035.59;;;7.65;89.75
12636;BME280;6383;50.830;7.210;2023-02-12T01:36:04;103040.19;;;7.65;90.24
12636;BME280;6383;50.830;7.210;2023-02-12T01:38:31;103032.06;;;7.65;89.61
12636;BME280;6383;50.830;7.210;2023-02-12T01:41:02;103026.63;;;7.65;90.56
12636;BME280;6383;50.830;7.210;2023-02-12T01:43:32;103032.06;;;7.65;89.68
12636;BME280;6383;50.830;7.210;2023-02-12T01:46:03;103035.81;;;7.64;90.76
12636;BME280;6383;50.830;7.210;2023-02-12T01:48:36;103028.72;;;7.63;90.52
12636;BME280;6383;50.830;7.210;2023-02-12T01:51:06;103016.84;;;7.64;90.56
12636;BME280;6383;50.830;7.210;2023-02-12T01:53:40;103012.47;;;7.63;90.70
12636;BME280;6383;50.830;7.210;2023-02-12T01:56:09;103009.75;;;7.63;90.63
12636;BME280;6383;50.830;7.210;2023-02-12T01:58:40;103012.69;;;7.61;89.54
12636;BME280;6383;50.830;7.210;2023-02-12T02:01:14;103019.97;;;7.61;89.70
12636;BME280;6383;50.830;7.210;2023-02-12T02:03:48;103016.22;;;7.62;90.60
12636;BME280;6383;50.830;7.210;2023-02-12T02:06:19;103021.88;;;7.60;89.98
12636;BME280;6383;50.830;7.210;2023-02-12T02:08:48;103011.84;;;7.61;89.48
12636;BME280;6383;50.830;7.210;2023-02-12T02:11:19;103018.31;;;7.60;90.78
12636;BME280;6383;50.830;7.210;2023-02-12T02:14:05;103019.38;;;7.59;90.75
12636;BME280;6383;50.830;7.210;2023-02-12T02:16:59;103015.00;;;7.58;90.52
12636;BME280;6383;50.830;7.210;2023-02-12T02:19:44;103012.28;;;7.58;89.72
12636;BME280;6383;50.830;7.210;2023-02-12T02:22:30;103007.13;;;7.56;89.93
12636;BME280;6383;50.830;7.210;2023-02-12T02:25:35;103009.00;;;7.56;89.86
12636;BME280;6383;50.830;7.210;2023-02-12T02:28:32;103009.81;;;7.56;90.66
12636;BME280;6383;50.830;7.210;2023-02-12T02:31:08;103001.69;;;7.56;90.02
12636;BME280;6383;50.830;7.210;2023-02-12T02:33:42;102997.09;;;7.57;90.67
12636;BME280;6383;50.830;7.210;2023-02-12T02:36:24;102997.31;;;7.55;90.83
12636;BME280;6383;50.830;7.210;2023-02-12T02:38:57;102997.09;;;7.57;90.03
12636;BME280;6383;50.830;7.210;2023-02-12T02:41:34;103001.44;;;7.58;90.19
12636;BME280;6383;50.830;7.210;2023-02-12T02:44:11;103007.94;;;7.57;90.78
12636;BME280;6383;50.830;7.210;2023-02-12T02:46:45;102997.09;;;7.57;90.22
12636;BME280;6383;50.830;7.210;2023-02-12T02:49:18;103003.31;;;7.57;90.82
12636;BME280;6383;50.830;7.210;2023-02-12T02:51:51;102999.56;;;7.58;90.35
12636;BME280;6383;50.830;7.210;2023-02-12T02:54:28;103001.22;;;7.59;90.05
12636;BME280;6383;50.830;7.210;2023-02-12T02:57:03;103004.78;;;7.60;90.69
12636;BME280;6383;50.830;7.210;2023-02-12T02:59:36;103000.41;;;7.59;90.45
12636;BME280;6383;50.830;7.210;2023-02-12T03:02:12;103003.94;;;7.59;90.72
12636;BME280;6383;50.830;7.210;2023-02-12T03:04:44;102997.91;;;7.57;89.88
12636;BME280;6383;50.830;7.210;2023-02-12T03:07:18;102997.09;;;7.57;90.48
12636;BME280;6383;50.830;7.210;2023-02-12T03:09:53;102999.81;;;7.57;90.41
12636;BME280;6383;50.830;7.210;2023-02-12T03:12:27;103002.28;;;7.58;90.05
12636;BME280;6383;50.830;7.210;2023-02-12T03:15:02;102998.75;;;7.58;89.76
12636;BME280;6383;50.830;7.210;2023-02-12T03:17:36;103007.34;;;7.55;89.41
12636;BME280;6383;50.830;7.210;2023-02-12T03:20:11;103003.78;;;7.54;90.32
12636;BME280;6383;50.830;7.210;2023-02-12T03:22:44;103005.66;;;7.54;90.33
12636;BME280;6383;50.830;7.210;2023-02-12T03:25:16;102998.38;;;7.54;90.14
12636;BME280;6383;50.830;7.210;2023-02-12T03:27:46;102998.16;;;7.56;90.30
12636;BME280;6383;50.830;7.210;2023-02-12T03:30:18;102995.44;;;7.56;90.10
12636;BME280;6383;50.830;7.210;2023-02-12T03:32:54;103000.63;;;7.57;90.69
12636;BME280;6383;50.830;7.210;2023-02-12T03:35:30;103002.53;;;7.57;89.61
12636;BME280;6383;50.830;7.210;2023-02-12T03:38:04;102999.81;;;7.57;90.49
12636;BME280;6383;50.830;7.210;2023-02-12T03:40:40;102994.41;;;7.57;89.82
12636;BME280;6383;50.830;7.210;2023-02-12T03:43:18;102992.72;;;7.56;90.08
12636;BME280;6383;50.830;7.210;2023-02-12T03:45:54;102999.81;;;7.57;90.53
12636;BME280;6383;50.830;7.210;2023-02-12T03:48:27;102992.47;;;7.57;89.92
12636;BME280;6383;50.830;7.210;2023-02-12T03:51:02;102994.16;;;7.58;90.11
12636;BME280;6383;50.830;7.210;2023-02-12T03:53:30;102991.44;;;7.58;90.90
12636;BME280;6383;50.830;7.210;2023-02-12T03:56:04;102990.84;;;7.56;90.79
12636;BME280;6383;50.830;7.210;2023-02-12T03:58:36;102995.44;;;7.56;90.75
12636;BME280;6383;50.830;7.210;2023-02-12T04:01:07;103000.88;;;7.56;90.88
12636;BME280;6383;50.830;7.210;2023-02-12T04:03:38;103001.69;;;7.56;90.83
12636;BME280;6383;50.830;7.210;2023-02-12T04:06:18;102999.19;;;7.55;90.30
12636;BME280;6383;50.830;7.210;2023-02-12T04:08:47;103006.50;;;7.54;90.28
12636;BME280;6383;50.830;7.210;2023-02-12T04:11:24;103007.34;;;7.55;89.83
12636;BME280;6383;50.830;7.210;2023-02-12T04:14:08;103011.69;;;7.56;89.79
12636;BME280;6383;50.830;7.210;2023-02-12T04:16:43;103009.81;;;7.56;89.54
12636;BME280;6383;50.830;7.210;2023-02-12T04:19:17;103008.75;;;7.57;89.79
12636;BME280;6383;50.830;7.210;2023-02-12T04:21:56;103009.81;;;7.56;90.45
12636;BME280;6383;50.830;7.210;2023-02-12T04:24:36;103003.31;;;7.57;90.36
12636;BME280;6383;50.830;7.210;2023-02-12T04:27:12;103013.13;;;7.58;90.20
12636;BME280;6383;50.830;7.210;2023-02-12T04:29:47;103021.25;;;7.58;90.33
12636;BME280;6383;50.830;7.210;2023-02-12T04:32:20;103032.34;;;7.57;90.06
12636;BME280;6383;50.830;7.210;2023-02-12T04:34:56;103031.72;;;7.55;89.89
12636;BME280;6383;50.830;7.210;2023-02-12T04:37:28;103025.47;;;7.54;90.53
12636;BME280;6383;50.830;7.210;2023-02-12T04:40:02;103037.13;;;7.55;90.58
12636;BME280;6383;50.830;7.210;2023-02-12T04:42:40;103026.31;;;7.55;90.75
12636;BME280;6383;50.830;7.210;2023-02-12T04:45:10;103029.00;;;7.55;91.02
12636;BME280;6383;50.830;7.210;2023-02-12T04:47:39;103024.63;;;7.54;90.07
12636;BME280;6383;50.830;7.210;2023-02-12T04:50:10;103026.91;;;7.57;90.22
12636;BME280;6383;50.830;7.210;2023-02-12T04:52:40;103036.94;;;7.56;90.56
12636;BME280;6383;50.830;7.210;2023-02-12T04:55:07;103035.84;;;7.57;90.43
12636;BME280;6383;50.830;7.210;2023-02-12T04:57:36;103028.53;;;7.58;90.80
12636;BME280;6383;50.830;7.210;2023-02-12T05:00:05;103030.66;;;7.56;90.48
12636;BME280;6383;50.830;7.210;2023-02-12T05:02:37;103032.56;;;7.55;90.78
12636;BME280;6383;50.830;7.210;2023-02-12T05:05:07;103029.84;;;7.55;90.31
12636;BME280;6383;50.830;7.210;2023-02-12T05:07:36;103029.00;;;7.55;89.94
12636;BME280;6383;50.830;7.210;2023-02-12T05:10:05;103027.97;;;7.56;90.15
12636;BME280;6383;50.830;7.210;2023-02-12T05:12:34;103018.78;;;7.57;89.58
12636;BME280;6383;50.830;7.210;2023-02-12T05:15:02;103023.38;;;7.56;90.47
12636;BME280;6383;50.830;7.210;2023-02-12T05:17:30;103025.25;;;7.56;90.25
12636;BME280;6383;50.830;7.210;2023-02-12T05:19:57;103019.84;;;7.56;89.83
12636;BME280;6383;50.830;7.210;2023-02-12T05:22:24;103017.97;;;7.56;90.80
12636;BME280;6383;50.830;7.210;2023-02-12T05:24:55;103024.41;;;7.55;90.11
12636;BME280;6383;50.830;7.210;2023-02-12T05:27:24;103024.41;;;7.55;90.50
12636;BME280;6383;50.830;7.210;2023-02-12T05:29:52;103029.00;;;7.55;89.81
12636;BME280;6383;50.830;7.210;2023-02-12T05:32:22;103030.50;;;7.51;90.19
12636;BME280;6383;50.830;7.210;2023-02-12T05:34:51;103030.50;;;7.51;91.07
12636;BME280;6383;50.830;7.210;2023-02-12T05:37:20;103028.81;;;7.50;90.34
12636;BME280;6383;50.830;7.210;2023-02-12T05:39:48;103029.66;;;7.50;90.26
12636;BME280;6383;50.830;7.210;2023-02-12T05:42:19;103023.19;;;7.51;89.94
12636;BME280;6383;50.830;7.210;2023-02-12T05:44:48;103034.03;;;7.51;90.21
12636;BME280;6383;50.830;7.210;2023-02-12T05:47:17;103036.53;;;7.53;89.94
12636;BME280;6383;50.830;7.210;2023-02-12T05:49:45;103038.41;;;7.52;90.47
12636;BME280;6383;50.830;7.210;2023-02-12T05:52:14;103041.94;;;7.53;90.76
12636;BME280;6383;50.830;7.210;2023-02-12T05:54:43;103044.66;;;7.53;90.55
12636;BME280;6383;50.830;7.210;2023-02-12T05:57:13;103045.69;;;7.52;90.26
12636;BME280;6383;50.830;7.210;2023-02-12T05:59:41;103043.38;;;7.55;90.01
12636;BME280;6383;50.830;7.210;2023-02-12T06:02:10;103043.19;;;7.57;90.86
12636;BME280;6383;50.830;7.210;2023-02-12T06:04:38;103047.50;;;7.58;89.95
12636;BME280;6383;50.830;7.210;2023-02-12T06:07:07;103049.41;;;7.57;89.74
12636;BME280;6383;50.830;7.210;2023-02-12T06:09:36;103048.34;;;7.58;90.59
12636;BME280;6383;50.830;7.210;2023-02-12T06:12:05;103049.03;;;7.54;90.85
12636;BME280;6383;50.830;7.210;2023-02-12T06:14:34;103061.75;;;7.53;90.70
12636;BME280;6383;50.830;7.210;2023-02-12T06:17:04;103058.81;;;7.55;90.06
12636;BME280;6383;50.830;7.210;2023-02-12T06:19:31;103059.88;;;7.54;90.20
12636;BME280;6383;50.830;7.210;2023-02-12T06:21:59;103058.19;;;7.53;90.89
12636;BME280;6383;50.830;7.210;2023-02-12T06:24:28;103051.13;;;7.52;90.47
12636;BME280;6383;50.830;7.210;2023-02-12T06:26:57;103051.13;;;7.52;89.74
12636;BME280;6383;50.830;7.210;2023-02-12T06:29:26;103056.53;;;7.52;89.83
12636;BME280;6383;50.830;7.210;2023-02-12T06:31:54;103056.53;;;7.52;90.83
12636;BME280;6383;50.830;7.210;2023-02-12T06:34:24;103054.03;;;7.50;90.91
12636;BME280;6383;50.830;7.210;2023-02-12T06:36:52;103057.59;;;7.51;90.09
12636;BME280;6383;50.830;7.210;2023-02-12T06:39:20;103058.41;;;7.51;90.09
12636;BME280;6383;50.830;7.210;2023-02-12T06:41:49;103060.28;;;7.51;90.89
12636;BME280;6383;50.830;7.210;2023-02-12T06:44:16;103065.94;;;7.49;90.63
12636;BME280;6383;50.830;7.210;2023-02-12T06:46:44;103064.06;;;7.50;89.63
12636;BME280;6383;50.830;7.210;2023-02-12T06:49:13;103067.81;;;7.49;90.46
12636;BME280;6383;50.830;7.210;2023-02-12T06:51:44;103070.53;;;7.49;90.27
12636;BME280;6383;50.830;7.210;2023-02-12T06:54:13;103071.34;;;7.49;90.34
12636;BME280;6383;50.830;7.210;2023-02-12T06:56:42;103068.44;;;7.51;90.02
12636;BME280;6383;50.830;7.210;2023-02-12T06:59:12;103073.84;;;7.51;89.95
12636;BME280;6383;50.830;7.210;2023-02-12T07:01:42;103074.69;;;7.51;90.71
12636;BME280;6383;50.830;7.210;2023-02-12T07:04:11;103081.13;;;7.50;90.41
12636;BME280;6383;50.830;7.210;2023-02-12T07:06:40;103083.63;;;7.52;90.18
12636;BME280;6383;50.830;7.210;2023-02-12T07:09:10;103082.59;;;7.53;91.26
12636;BME280;6383;50.830;7.210;2023-02-12T07:11:39;103088.22;;;7.51;91.12
12636;BME280;6383;50.830;7.210;2023-02-12T07:14:12;103092.59;;;7.52;90.87
12636;BME280;6383;50.830;7.210;2023-02-12T07:16:40;103099.69;;;7.53;91.35
12636;BME280;6383;50.830;7.210;2023-02-12T07:19:12;103098.41;;;7.56;90.34
12636;BME280;6383;50.830;7.210;2023-02-12T07:21:40;103100.28;;;7.55;91.20
12636;BME280;6383;50.830;7.210;2023-02-12T07:24:11;103100.09;;;7.57;90.77
12636;BME280;6383;50.830;7.210;2023-02-12T07:26:41;103097.38;;;7.57;91.35
12636;BME280;6383;50.830;7.210;2023-02-12T07:29:09;103106.31;;;7.57;90.41
12636;BME280;6383;50.830;7.210;2023-02-12T07:31:38;103104.22;;;7.59;90.62
12636;BME280;6383;50.830;7.210;2023-02-12T07:34:08;103100.44;;;7.60;90.63
12636;BME280;6383;50.830;7.210;2023-02-12T07:36:37;103108.59;;;7.60;90.65
12636;BME280;6383;50.830;7.210;2023-02-12T07:39:05;103101.28;;;7.61;90.75
12636;BME280;6383;50.830;7.210;2023-02-12T07:41:35;103099.19;;;7.63;90.88
12636;BME280;6383;50.830;7.210;2023-02-12T07:44:04;103100.84;;;7.64;91.17
12636;BME280;6383;50.830;7.210;2023-02-12T07:46:35;103106.06;;;7.65;90.95
12636;BME280;6383;50.830;7.210;2023-02-12T07:49:11;103103.13;;;7.67;91.34
12636;BME280;6383;50.830;7.210;2023-02-12T07:51:39;103106.47;;;7.69;90.42
12636;BME280;6383;50.830;7.210;2023-02-12T07:54:09;103107.91;;;7.71;90.76
12636;BME280;6383;50.830;7.210;2023-02-12T07:56:41;103109.78;;;7.71;91.00
12636;BME280;6383;50.830;7.210;2023-02-12T07:59:13;103111.41;;;7.72;91.62
12636;BME280;6383;50.830;7.210;2023-02-12T08:01:44;103115.78;;;7.73;90.70
12636;BME280;6383;50.830;7.210;2023-02-12T08:04:13;103112.03;;;7.74;91.12
12636;BME280;6383;50.830;7.210;2023-02-12T08:06:43;103114.53;;;7.75;91.58
12636;BME280;6383;50.830;7.210;2023-02-12T08:09:13;103114.53;;;7.75;91.00
12636;BME280;6383;50.830;7.210;2023-02-12T08:11:44;103116.19;;;7.76;90.82
12636;BME280;6383;50.830;7.210;2023-02-12T08:14:15;103112.44;;;7.77;90.77
12636;BME280;6383;50.830;7.210;2023-02-12T08:16:46;103114.94;;;7.79;90.81
12636;BME280;6383;50.830;7.210;2023-02-12T08:19:15;103109.28;;;7.81;90.92
12636;BME280;6383;50.830;7.210;2023-02-12T08:21:43;103119.09;;;7.82;91.80
12636;BME280;6383;50.830;7.210;2023-02-12T08:24:13;103116.16;;;7.83;91.88
12636;BME280;6383;50.830;7.210;2023-02-12T08:26:43;103116.53;;;7.87;90.88
12636;BME280;6383;50.830;7.210;2023-02-12T08:29:13;103118.19;;;7.88;91.83
12636;BME280;6383;50.830;7.210;2023-02-12T08:31:44;103120.91;;;7.88;90.98
12636;BME280;6383;50.830;7.210;2023-02-12T08:34:17;103126.13;;;7.89;91.29
12636;BME280;6383;50.830;7.210;2023-02-12T08:36:47;103122.34;;;7.90;92.08
12636;BME280;6383;50.830;7.210;2023-02-12T08:39:17;103119.22;;;7.93;92.26
12636;BME280;6383;50.830;7.210;2023-02-12T08:41:48;103119.81;;;7.95;91.38
12636;BME280;6383;50.830;7.210;2023-02-12T08:44:17;103131.91;;;7.99;91.65
12636;BME280;6383;50.830;7.210;2023-02-12T08:46:47;103136.28;;;8.00;91.86
12636;BME280;6383;50.830;7.210;2023-02-12T08:49:19;103129.78;;;8.01;92.13
12636;BME280;6383;50.830;7.210;2023-02-12T08:51:50;103131.44;;;8.02;92.45
12636;BME280;6383;50.830;7.210;2023-02-12T08:54:21;103140.19;;;8.04;91.44
12636;BME280;6383;50.830;7.210;2023-02-12T08:56:53;103137.03;;;8.07;91.37
12636;BME280;6383;50.830;7.210;2023-02-12T08:59:22;103138.25;;;8.11;91.39
12636;BME280;6383;50.830;7.210;2023-02-12T09:01:52;103135.13;;;8.14;91.38
12636;BME280;6383;50.830;7.210;2023-02-12T09:04:22;103139.25;;;8.17;91.60
12636;BME280;6383;50.830;7.210;2023-02-12T09:06:51;103129.00;;;8.19;92.20
12636;BME280;6383;50.830;7.210;2023-02-12T09:09:19;103129.63;;;8.21;91.91
12636;BME280;6383;50.830;7.210;2023-02-12T09:11:47;103130.00;;;8.25;92.01
12636;BME280;6383;50.830;7.210;2023-02-12T09:14:17;103136.06;;;8.27;91.43
12636;BME280;6383;50.830;7.210;2023-02-12T09:16:50;103128.53;;;8.29;91.73
12636;BME280;6383;50.830;7.210;2023-02-12T09:19:20;103130.81;;;8.32;91.45
12636;BME280;6383;50.830;7.210;2023-02-12T09:21:50;103135.78;;;8.35;91.77
12636;BME280;6383;50.830;7.210;2023-02-12T09:24:17;103129.09;;;8.37;91.71
12636;BME280;6383;50.830;7.210;2023-02-12T09:26:46;103134.09;;;8.40;91.64
12636;BME280;6383;50.830;7.210;2023-02-12T09:29:16;103133.63;;;8.43;91.27
12636;BME280;6383;50.830;7.210;2023-02-12T09:31:45;103131.53;;;8.45;91.30
12636;BME280;6383;50.830;7.210;2023-02-12T09:34:13;103133.78;;;8.48;91.72
12636;BME280;6383;50.830;7.210;2023-02-12T09:36:41;103136.06;;;8.52;92.27
12636;BME280;6383;50.830;7.210;2023-02-12T09:39:09;103133.94;;;8.54;91.76
12636;BME280;6383;50.830;7.210;2023-02-12T09:42:08;103128.31;;;8.55;91.65
12636;BME280;6383;50.830;7.210;2023-02-12T09:44:47;103141.03;;;8.55;91.22
12636;BME280;6383;50.830;7.210;2023-02-12T09:47:25;103127.25;;;8.56;92.23
12636;BME280;6383;50.830;7.210;2023-02-12T09:50:15;103134.13;;;8.59;92.07
12636;BME280;6383;50.830;7.210;2023-02-12T09:52:44;103135.78;;;8.60;91.56
12636;BME280;6383;50.830;7.210;2023-02-12T09:55:15;103135.09;;;8.64;91.64
12636;BME280;6383;50.830;7.210;2023-02-12T09:57:46;103139.47;;;8.65;92.31
12636;BME280;6383;50.830;7.210;2023-02-12T10:00:20;103140.06;;;8.67;92.47
12636;BME280;6383;50.830;7.210;2023-02-12T10:02:49;103139.03;;;8.68;91.40
12636;BME280;6383;50.830;7.210;2023-02-12T10:05:22;103142.13;;;8.72;92.26
12636;BME280;6383;50.830;7.210;2023-02-12T10:08:12;103140.03;;;8.74;91.98
12636;BME280;6383;50.830;7.210;2023-02-12T10:10:50;103144.41;;;8.75;91.50
12636;BME280;6383;50.830;7.210;2023-02-12T10:13:30;103140.38;;;8.77;92.15
12636;BME280;6383;50.830;7.210;2023-02-12T10:16:10;103149.13;;;8.79;91.21
12636;BME280;6383;50.830;7.210;2023-02-12T10:19:01;103147.63;;;8.83;91.20
12636;BME280;6383;50.830;7.210;2023-02-12T10:21:42;103150.97;;;8.86;91.49
12636;BME280;6383;50.830;7.210;2023-02-12T10:24:48;103147.81;;;8.89;91.95
12636;BME280;6383;50.830;7.210;2023-02-12T10:27:34;103145.66;;;8.91;91.63
12636;BME280;6383;50.830;7.210;2023-02-12T10:30:13;103151.69;;;8.93;91.60
12636;BME280;6383;50.830;7.210;2023-02-12T10:32:43;103151.25;;;8.96;91.39
12636;BME280;6383;50.830;7.210;2023-02-12T10:35:16;103142.66;;;8.99;92.00
12636;BME280;6383;50.830;7.210;2023-02-12T10:37:47;103143.03;;;9.02;92.02
12636;BME280;6383;50.830;7.210;2023-02-12T10:40:22;103143.41;;;9.06;91.75
12636;BME280;6383;50.830;7.210;2023-02-12T10:42:53;103146.50;;;9.09;91.55
12636;BME280;6383;50.830;7.210;2023-02-12T10:45:28;103139.56;;;9.13;91.84
12636;BME280;6383;50.830;7.210;2023-02-12T10:48:05;103134.50;;;9.17;91.60
12636;BME280;6383;50.830;7.210;2023-02-12T10:50:47;103131.31;;;9.20;92.09
12636;BME280;6383;50.830;7.210;2023-02-12T10:53:20;103131.09;;;9.22;92.03
12636;BME280;6383;50.830;7.210;2023-02-12T10:56:05;103139.84;;;9.24;91.06
12636;BME280;6383;50.830;7.210;2023-02-12T10:58:38;103134.19;;;9.25;91.66
12636;BME280;6383;50.830;7.210;2023-02-12T11:01:15;103123.91;;;9.27;91.13
12636;BME280;6383;50.830;7.210;2023-02-12T11:03:45;103127.84;;;9.31;90.84
12636;BME280;6383;50.830;7.210;2023-02-12T11:06:17;103123.59;;;9.35;91.37
12636;BME280;6383;50.830;7.210;2023-02-12T11:08:46;103117.69;;;9.38;91.39
12636;BME280;6383;50.830;7.210;2023-02-12T11:11:19;103132.50;;;9.42;90.64
12636;BME280;6383;50.830;7.210;2023-02-12T11:13:53;103124.94;;;9.44;90.48
12636;BME280;6383;50.830;7.210;2023-02-12T11:16:33;103113.63;;;9.47;91.17
12636;BME280;6383;50.830;7.210;2023-02-12T11:19:03;103120.22;;;9.51;90.60
12636;BME280;6383;50.830;7.210;2023-02-12T11:21:31;103110.78;;;9.54;90.45
12636;BME280;6383;50.830;7.210;2023-02-12T11:24:27;103111.63;;;9.54;90.73
12636;BME280;6383;50.830;7.210;2023-02-12T11:27:21;103111.16;;;9.58;90.39
12636;BME280;6383;50.830;7.210;2023-02-12T11:30:11;103100.91;;;9.60;90.16
12636;BME280;6383;50.830;7.210;2023-02-12T11:32:42;103098.53;;;9.63;90.38
12636;BME280;6383;50.830;7.210;2023-02-12T11:35:13;103099.72;;;9.67;90.31
12636;BME280;6383;50.830;7.210;2023-02-12T11:37:46;103106.59;;;9.70;90.16
12636;BME280;6383;50.830;7.210;2023-02-12T11:40:19;103097.13;;;9.72;89.16
12636;BME280;6383;50.830;7.210;2023-02-12T11:42:51;103095.25;;;9.73;90.02
12636;BME280;6383;50.830;7.210;2023-02-12T11:45:21;103098.56;;;9.75;89.38
12636;BME280;6383;50.830;7.210;2023-02-12T11:47:55;103092.69;;;9.78;89.36
12636;BME280;6383;50.830;7.210;2023-02-12T11:50:25;103093.25;;;9.80;89.79
12636;BME280;6383;50.830;7.210;2023-02-12T11:52:56;103091.72;;;9.84;89.26
12636;BME280;6383;50.830;7.210;2023-02-12T11:55:26;103086.88;;;9.86;89.80
12636;BME280;6383;50.830;7.210;2023-02-12T11:58:01;103084.75;;;9.88;89.40
12636;BME280;6383;50.830;7.210;2023-02-12T12:00:33;103086.19;;;9.90;88.70
12636;BME280;6383;50.830;7.210;2023-02-12T12:03:10;103078.63;;;9.93;89.19
12636;BME280;6383;50.830;7.210;2023-02-12T12:05:44;103072.13;;;9.94;88.68
12636;BME280;6383;50.830;7.210;2023-02-12T12:08:19;103061.81;;;9.96;89.35
12636;BME280;6383;50.830;7.210;2023-02-12T12:10:56;103059.22;;;10.01;89.13
12636;BME280;6383;50.830;7.210;2023-02-12T12:13:32;103054.97;;;10.05;88.88
12636;BME280;6383;50.830;7.210;2023-02-12T12:16:03;103053.56;;;10.02;88.96
12636;BME280;6383;50.830;7.210;2023-02-12T12:18:57;103053.09;;;10.05;89.15
12636;BME280;6383;50.830;7.210;2023-02-12T12:21:47;103050.72;;;10.09;89.18
12636;BME280;6383;50.830;7.210;2023-02-12T12:24:21;103045.63;;;10.12;88.67
12636;BME280;6383;50.830;7.210;2023-02-12T12:26:55;103051.44;;;10.16;88.24
12636;BME280;6383;50.830;7.210;2023-02-12T12:29:33;103042.81;;;10.19;88.08
12636;BME280;6383;50.830;7.210;2023-02-12T12:32:11;103042.13;;;10.23;88.59
12636;BME280;6383;50.830;7.210;2023-02-12T12:34:41;103038.06;;;10.26;87.86
12636;BME280;6383;50.830;7.210;2023-02-12T12:37:23;103037.59;;;10.29;87.83
12636;BME280;6383;50.830;7.210;2023-02-12T12:40:06;103039.50;;;10.29;87.81
12636;BME280;6383;50.830;7.210;2023-02-12T12:45:46;103028.50;;;10.35;87.57
12636;BME280;6383;50.830;7.210;2023-02-12T12:48:27;103029.09;;;10.37;87.15
12636;BME280;6383;50.830;7.210;2023-02-12T12:51:11;103020.41;;;10.40;87.13
12636;BME280;6383;50.830;7.210;2023-02-12T12:53:54;103025.41;;;10.43;86.79
12636;BME280;6383;50.830;7.210;2023-02-12T12:56:48;103020.31;;;10.47;86.73
12636;BME280;6383;50.830;7.210;2023-02-12T12:59:40;103010.84;;;10.49;86.81
12636;BME280;6383;50.830;7.210;2023-02-12T13:02:51;103008.47;;;10.53;86.63
12636;BME280;6383;50.830;7.210;2023-02-12T13:05:44;103003.84;;;10.53;86.46
12636;BME280;6383;50.830;7.210;2023-02-12T13:08:29;102999.22;;;10.54;86.40
12636;BME280;6383;50.830;7.210;2023-02-12T13:11:11;102999.31;;;10.59;85.68
12636;BME280;6383;50.830;7.210;2023-02-12T13:13:46;102992.56;;;10.62;85.73
12636;BME280;6383;50.830;7.210;2023-02-12T13:16:21;102994.00;;;10.64;85.67
12636;BME280;6383;50.830;7.210;2023-02-12T13:18:57;102996.25;;;10.67;85.61
12636;BME280;6383;50.830;7.210;2023-02-12T13:21:37;102993.00;;;10.70;85.22
12636;BME280;6383;50.830;7.210;2023-02-12T13:24:16;102994.66;;;10.71;85.06
12636;BME280;6383;50.830;7.210;2023-02-12T13:26:53;102983.78;;;10.71;84.46
12636;BME280;6383;50.830;7.210;2023-02-12T13:29:27;102982.69;;;10.72;84.46
12636;BME280;6383;50.830;7.210;2023-02-12T13:32:00;102985.44;;;10.72;83.94
12636;BME280;6383;50.830;7.210;2023-02-12T13:34:31;102984.13;;;10.75;84.45
12636;BME280;6383;50.830;7.210;2023-02-12T13:37:01;102979.50;;;10.75;84.26
12636;BME280;6383;50.830;7.210;2023-02-12T13:39:36;102980.09;;;10.77;84.50
12636;BME280;6383;50.830;7.210;2023-02-12T13:42:10;102979.97;;;10.72;84.62
12636;BME280;6383;50.830;7.210;2023-02-12T13:44:46;102988.38;;;10.71;84.32